createdAt,value
2018-09-28T00:00:54.170Z,10.78
2018-09-28T00:01:54.162Z,10.83
2018-09-28T00:02:54.155Z,10.77
2018-09-28T00:03:54.161Z,10.91
2018-09-28T00:04:54.150Z,10.78
2018-09-28T00:05:54.146Z,10.83
2018-09-28T00:06:54.140Z,10.84
2018-09-28T00:07:54.134Z,10.81
2018-09-28T00:08:54.125Z,10.80
2018-09-28T00:09:54.123Z,10.83
2018-09-28T00:10:54.117Z,10.84
2018-09-28T00:11:54.111Z,10.80
2018-09-28T00:12:54.112Z,10.84
2018-09-28T00:13:54.110Z,10.89
2018-09-28T00:14:54.100Z,10.83
2018-09-28T00:15:54.095Z,10.88
2018-09-28T00:16:54.095Z,10.86
2018-09-28T00:17:54.086Z,10.83
2018-09-28T00:18:54.085Z,10.78
2018-09-28T00:19:54.078Z,10.71
2018-09-28T00:20:54.088Z,10.78
2018-09-28T00:21:54.063Z,10.76
2018-09-28T00:22:54.063Z,10.70
2018-09-28T00:23:54.057Z,10.68
2018-09-28T00:24:54.044Z,10.66
2018-09-28T00:25:54.051Z,10.66
2018-09-28T00:26:54.042Z,10.53
2018-09-28T00:27:54.031Z,10.53
2018-09-28T00:28:54.034Z,10.44
2018-09-28T00:29:54.022Z,10.39
2018-09-28T00:30:54.084Z,10.40
2018-09-28T00:31:54.018Z,10.53
2018-09-28T00:32:54.011Z,10.47
2018-09-28T00:33:54.007Z,10.53
2018-09-28T00:34:53.997Z,10.42
2018-09-28T00:35:54.014Z,10.55
2018-09-28T00:36:54.003Z,10.68
2018-09-28T00:37:53.982Z,10.55
2018-09-28T00:38:53.983Z,10.60
2018-09-28T00:39:53.983Z,10.56
2018-09-28T00:40:53.974Z,10.59
2018-09-28T00:41:53.962Z,10.58
2018-09-28T00:42:53.959Z,10.53
2018-09-28T00:43:53.959Z,10.56
2018-09-28T00:44:53.953Z,10.53
2018-09-28T00:45:53.943Z,10.63
2018-09-28T00:46:53.943Z,10.58
2018-09-28T00:47:53.936Z,10.68
2018-09-28T00:48:53.930Z,10.71
2018-09-28T00:49:53.922Z,10.71
2018-09-28T00:50:53.921Z,10.81
2018-09-28T00:51:53.906Z,10.89
2018-09-28T00:52:53.909Z,10.83
2018-09-28T00:53:53.902Z,10.80
2018-09-28T00:54:53.899Z,10.78
2018-09-28T00:55:53.895Z,10.73
2018-09-28T00:56:53.887Z,10.77
2018-09-28T00:57:53.890Z,10.70
2018-09-28T00:58:53.880Z,10.73
2018-09-28T00:59:53.876Z,10.68
2018-09-28T01:00:53.869Z,10.83
2018-09-28T01:01:53.881Z,10.62
2018-09-28T01:02:53.863Z,10.76
2018-09-28T01:03:53.856Z,10.71
2018-09-28T01:04:53.853Z,10.73
2018-09-28T01:05:53.849Z,10.68
2018-09-28T01:06:53.888Z,10.71
2018-09-28T01:07:53.839Z,10.73
2018-09-28T01:08:53.833Z,10.73
2018-09-28T01:09:53.823Z,10.68
2018-09-28T01:10:53.830Z,10.62
2018-09-28T01:11:53.820Z,10.53
2018-09-28T01:12:53.848Z,10.62
2018-09-28T01:13:53.800Z,10.52
2018-09-28T01:14:53.793Z,10.51
2018-09-28T01:15:53.798Z,10.52
2018-09-28T01:16:53.786Z,10.47
2018-09-28T01:17:53.784Z,10.47
2018-09-28T01:18:53.777Z,10.43
2018-09-28T01:19:53.774Z,10.36
2018-09-28T01:20:53.768Z,10.36
2018-09-28T01:21:53.759Z,10.39
2018-09-28T01:22:53.761Z,10.46
2018-09-28T01:23:53.757Z,10.36
2018-09-28T01:24:53.754Z,10.34
2018-09-28T01:25:53.739Z,10.46
2018-09-28T01:26:53.738Z,10.46
2018-09-28T01:27:53.730Z,10.47
2018-09-28T01:28:53.729Z,10.51
2018-09-28T02:05:52.840Z,10.44
2018-09-28T02:06:52.812Z,10.40
2018-09-28T02:08:45.692Z,10.37
2018-09-28T02:09:45.682Z,10.34
2018-09-28T02:11:38.590Z,10.25
2018-09-28T02:12:38.651Z,10.19
2018-09-28T02:14:31.501Z,10.14
2018-09-28T02:15:31.474Z,9.96
2018-09-28T02:17:24.386Z,9.97
2018-09-28T02:18:24.384Z,10.03
2018-09-28T02:20:17.317Z,10.07
2018-09-28T02:21:17.289Z,10.17
2018-09-28T02:23:10.194Z,10.32
2018-09-28T02:24:10.183Z,10.21
2018-09-28T02:25:10.182Z,10.32
2018-09-28T02:26:10.172Z,10.32
2018-09-28T02:27:10.163Z,10.28
2018-09-28T02:28:10.166Z,10.34
2018-09-28T02:29:10.153Z,10.34
2018-09-28T02:30:10.148Z,10.21
2018-09-28T02:31:10.145Z,10.39
2018-09-28T02:32:10.138Z,10.30
2018-09-28T02:33:10.122Z,10.30
2018-09-28T02:34:10.124Z,10.33
2018-09-28T02:35:10.120Z,10.34
2018-09-28T02:36:10.118Z,10.36
2018-09-28T02:37:10.118Z,10.33
2018-09-28T02:38:10.110Z,10.32
2018-09-28T02:39:10.098Z,10.25
2018-09-28T02:40:10.092Z,10.19
2018-09-28T02:41:10.093Z,10.17
2018-09-28T02:42:10.081Z,10.19
2018-09-28T02:43:10.081Z,10.21
2018-09-28T02:44:10.072Z,10.19
2018-09-28T02:45:10.070Z,10.19
2018-09-28T02:46:10.062Z,10.06
2018-09-28T02:47:10.054Z,10.19
2018-09-28T02:48:10.056Z,10.22
2018-09-28T02:49:10.042Z,10.30
2018-09-28T02:50:10.111Z,10.39
2018-09-28T02:51:10.039Z,10.32
2018-09-28T02:52:10.030Z,10.26
2018-09-28T02:53:10.063Z,10.25
2018-09-28T02:54:10.019Z,10.30
2018-09-28T02:55:10.015Z,10.46
2018-09-28T02:56:10.010Z,10.46
2018-09-28T02:57:10.021Z,10.52
2018-09-28T02:58:10.012Z,10.83
2018-09-28T02:59:09.997Z,10.78
2018-09-28T03:00:09.993Z,10.95
2018-09-28T03:01:09.985Z,10.92
2018-09-28T03:02:09.985Z,10.89
2018-09-28T03:03:09.974Z,10.83
2018-09-28T03:04:09.963Z,10.86
2018-09-28T03:05:09.967Z,10.83
2018-09-28T03:06:10.008Z,10.73
2018-09-28T03:07:09.962Z,10.76
2018-09-28T03:08:09.952Z,10.70
2018-09-28T03:09:09.949Z,10.60
2018-09-28T03:10:09.945Z,10.62
2018-09-28T03:11:09.933Z,10.52
2018-09-28T03:12:09.928Z,10.53
2018-09-28T03:13:09.936Z,10.46
2018-09-28T03:14:09.926Z,10.52
2018-09-28T03:15:09.914Z,10.52
2018-09-28T03:16:09.917Z,10.53
2018-09-28T03:17:09.904Z,10.53
2018-09-28T03:18:09.907Z,10.53
2018-09-28T03:19:09.895Z,10.55
2018-09-28T03:20:09.895Z,10.47
2018-09-28T03:21:09.888Z,10.47
2018-09-28T03:22:09.884Z,10.52
2018-09-28T03:23:09.878Z,10.51
2018-09-28T03:24:09.880Z,10.53
2018-09-28T03:25:09.872Z,10.40
2018-09-28T03:26:09.861Z,10.30
2018-09-28T03:27:09.867Z,10.47
2018-09-28T03:28:09.854Z,10.36
2018-09-28T03:29:09.851Z,10.37
2018-09-28T03:30:09.847Z,10.43
2018-09-28T03:31:09.843Z,10.53
2018-09-28T03:32:09.842Z,10.34
2018-09-28T03:33:09.825Z,10.47
2018-09-28T03:34:09.825Z,10.40
2018-09-28T03:35:09.829Z,10.36
2018-09-28T03:36:09.812Z,10.33
2018-09-28T03:37:09.808Z,10.36
2018-09-28T03:38:09.804Z,10.33
2018-09-28T03:39:09.804Z,10.32
2018-09-28T03:40:09.798Z,10.33
2018-09-28T03:41:09.787Z,10.32
2018-09-28T03:42:09.786Z,10.28
2018-09-28T03:43:09.777Z,10.34
2018-09-28T03:44:09.774Z,10.36
2018-09-28T03:45:09.770Z,10.37
2018-09-28T03:46:09.764Z,10.34
2018-09-28T03:47:09.758Z,10.25
2018-09-28T03:48:09.750Z,10.17
2018-09-28T03:49:09.813Z,10.17
2018-09-28T03:50:09.741Z,10.19
2018-09-28T03:51:09.740Z,10.15
2018-09-28T03:52:09.738Z,10.14
2018-09-28T03:53:09.734Z,10.12
2018-09-28T03:54:09.726Z,10.19
2018-09-28T03:55:09.722Z,10.14
2018-09-28T03:56:09.712Z,10.19
2018-09-28T03:57:09.706Z,10.17
2018-09-28T03:58:09.723Z,10.25
2018-09-28T03:59:09.701Z,10.15
2018-09-28T04:00:09.695Z,10.10
2018-09-28T04:01:09.690Z,10.10
2018-09-28T04:02:09.684Z,10.17
2018-09-28T04:03:09.679Z,10.14
2018-09-28T04:04:09.674Z,9.99
2018-09-28T04:05:09.684Z,10.03
2018-09-28T04:06:09.663Z,9.99
2018-09-28T04:07:09.661Z,10.01
2018-09-28T04:08:09.656Z,9.99
2018-09-28T04:09:09.650Z,9.94
2018-09-28T04:10:09.644Z,9.99
2018-09-28T04:11:09.637Z,10.00
2018-09-28T04:12:09.636Z,9.99
2018-09-28T04:13:09.636Z,10.06
2018-09-28T04:14:09.627Z,9.96
2018-09-28T04:15:09.635Z,9.94
2018-09-28T04:16:09.612Z,10.01
2018-09-28T04:17:09.616Z,10.00
2018-09-28T04:18:09.605Z,10.00
2018-09-28T04:19:09.596Z,10.01
2018-09-28T04:20:09.597Z,9.93
2018-09-28T04:21:09.588Z,9.75
2018-09-28T04:22:09.586Z,9.82
2018-09-28T04:23:09.585Z,9.68
2018-09-28T04:24:09.578Z,9.70
2018-09-28T04:25:09.572Z,9.76
2018-09-28T04:26:09.573Z,9.75
2018-09-28T04:27:09.560Z,9.82
2018-09-28T04:28:09.556Z,10.00
2018-09-28T04:29:09.549Z,9.96
2018-09-28T04:30:09.545Z,10.14
2018-09-28T04:31:09.536Z,10.10
2018-09-28T04:32:09.535Z,10.21
2018-09-28T04:33:09.530Z,10.18
2018-09-28T04:34:09.522Z,10.09
2018-09-28T04:35:09.521Z,10.18
2018-09-28T04:36:09.516Z,10.14
2018-09-28T04:37:09.509Z,10.17
2018-09-28T04:38:09.508Z,10.21
2018-09-28T04:39:09.498Z,10.19
2018-09-28T04:40:09.494Z,10.14
2018-09-28T04:41:09.487Z,10.17
2018-09-28T04:42:09.489Z,10.15
2018-09-28T04:43:09.484Z,10.12
2018-09-28T04:44:09.481Z,10.10
2018-09-28T04:45:09.530Z,10.09
2018-09-28T04:46:09.468Z,10.17
2018-09-28T04:47:09.460Z,10.14
2018-09-28T04:48:09.459Z,10.17
2018-09-28T04:49:09.449Z,10.15
2018-09-28T04:50:09.444Z,10.18
2018-09-28T04:51:09.730Z,10.09
2018-09-28T04:52:09.432Z,10.14
2018-09-28T04:53:09.428Z,10.19
2018-09-28T04:54:09.425Z,10.15
2018-09-28T04:55:09.424Z,10.19
2018-09-28T04:56:09.413Z,10.26
2018-09-28T04:57:09.404Z,10.28
2018-09-28T04:58:09.437Z,10.28
2018-09-28T04:59:09.395Z,10.39
2018-09-28T05:00:09.422Z,10.28
2018-09-28T05:01:09.419Z,10.44
2018-09-28T05:02:09.382Z,10.40
2018-09-28T05:03:09.376Z,10.52
2018-09-28T05:04:09.374Z,10.58
2018-09-28T05:05:09.370Z,10.46
2018-09-28T05:06:09.368Z,10.46
2018-09-28T05:07:09.360Z,10.46
2018-09-28T05:08:09.358Z,10.36
2018-09-28T05:09:09.347Z,10.33
2018-09-28T05:10:09.342Z,10.33
2018-09-28T05:11:09.340Z,10.32
2018-09-28T05:12:09.341Z,10.34
2018-09-28T05:13:09.406Z,10.32
2018-09-28T05:14:09.327Z,10.26
2018-09-28T05:15:09.318Z,10.28
2018-09-28T05:16:09.314Z,10.19
2018-09-28T05:17:09.310Z,10.26
2018-09-28T05:18:09.305Z,10.25
2018-09-28T05:19:09.295Z,10.28
2018-09-28T05:20:09.302Z,10.19
2018-09-28T05:21:09.289Z,10.14
2018-09-28T05:22:09.286Z,10.09
2018-09-28T05:23:09.273Z,10.15
2018-09-28T05:24:09.272Z,10.15
2018-09-28T05:25:09.280Z,10.17
2018-09-28T05:26:09.262Z,10.28
2018-09-28T05:27:09.261Z,10.30
2018-09-28T05:28:09.255Z,10.37
2018-09-28T05:29:09.259Z,10.24
2018-09-28T05:30:09.252Z,10.36
2018-09-28T05:31:09.345Z,10.37
2018-09-28T05:32:09.298Z,10.39
2018-09-28T05:33:09.221Z,10.33
2018-09-28T05:34:09.222Z,10.26
2018-09-28T05:35:09.229Z,10.46
2018-09-28T05:36:09.212Z,10.46
2018-09-28T05:37:09.236Z,10.51
2018-09-28T05:38:09.207Z,10.55
2018-09-28T05:39:09.199Z,10.55
2018-09-28T05:40:09.199Z,10.51
2018-09-28T05:41:09.189Z,10.63
2018-09-28T05:42:09.190Z,10.63
2018-09-28T05:43:09.177Z,10.63
2018-09-28T05:44:09.177Z,10.63
2018-09-28T05:45:09.170Z,10.78
2018-09-28T05:46:09.200Z,10.73
2018-09-28T05:47:09.158Z,10.80
2018-09-28T05:48:09.156Z,10.86
2018-09-28T05:49:09.151Z,10.86
2018-09-28T05:50:09.147Z,11.01
2018-09-28T05:51:09.143Z,11.09
2018-09-28T05:52:09.140Z,11.11
2018-09-28T05:53:09.134Z,11.13
2018-09-28T05:54:09.119Z,11.19
2018-09-28T05:55:09.119Z,11.14
2018-09-28T05:56:09.125Z,11.31
2018-09-28T05:57:09.114Z,11.44
2018-09-28T05:58:09.114Z,11.39
2018-09-28T05:59:09.104Z,11.57
2018-09-28T06:00:09.106Z,11.65
2018-09-28T06:01:09.094Z,11.72
2018-09-28T06:02:09.105Z,11.77
2018-09-28T06:03:09.089Z,11.94
2018-09-28T06:04:09.091Z,11.97
2018-09-28T06:05:09.082Z,12.09
2018-09-28T06:06:09.075Z,12.21
2018-09-28T06:07:09.068Z,12.24
2018-09-28T06:08:09.071Z,12.30
2018-09-28T06:09:09.059Z,12.57
2018-09-28T06:10:09.057Z,12.64
2018-09-28T06:11:09.050Z,12.71
2018-09-28T06:12:09.054Z,12.87
2018-09-28T06:13:09.042Z,13.17
2018-09-28T06:14:09.039Z,13.41
2018-09-28T06:15:09.041Z,13.67
2018-09-28T06:16:09.031Z,13.88
2018-09-28T06:17:09.049Z,14.12
2018-09-28T06:18:09.023Z,14.37
2018-09-28T06:19:09.019Z,14.57
2018-09-28T06:20:09.017Z,14.81
2018-09-28T06:21:09.013Z,14.78
2018-09-28T06:22:09.011Z,14.98
2018-09-28T06:23:09.006Z,15.20
2018-09-28T06:24:09.041Z,15.26
2018-09-28T06:25:09.003Z,15.45
2018-09-28T06:26:09.004Z,15.63
2018-09-28T06:27:08.995Z,15.81
2018-09-28T06:28:08.991Z,16.03
2018-09-28T06:29:08.988Z,16.12
2018-09-28T06:30:09.014Z,16.15
2018-09-28T06:31:08.984Z,16.37
2018-09-28T06:32:08.986Z,16.53
2018-09-28T06:33:08.985Z,16.52
2018-09-28T06:34:08.992Z,16.75
2018-09-28T06:35:08.974Z,16.90
2018-09-28T06:36:08.978Z,17.04
2018-09-28T06:37:08.974Z,17.08
2018-09-28T06:38:08.976Z,17.43
2018-09-28T06:39:08.967Z,17.36
2018-09-28T06:40:08.965Z,17.51
2018-09-28T06:41:08.977Z,17.70
2018-09-28T06:42:08.982Z,17.76
2018-09-28T06:43:08.974Z,17.88
2018-09-28T06:44:08.966Z,18.24
2018-09-28T06:45:08.968Z,18.43
2018-09-28T06:46:08.963Z,18.49
2018-09-28T06:47:08.964Z,18.67
2018-09-28T06:48:08.989Z,18.83
2018-09-28T06:49:08.971Z,19.21
2018-09-28T06:50:08.964Z,19.25
2018-09-28T06:51:09.004Z,19.29
2018-09-28T06:52:08.965Z,19.42
2018-09-28T06:53:08.964Z,19.25
2018-09-28T06:54:09.006Z,19.21
2018-09-28T06:55:08.969Z,19.17
2018-09-28T06:56:08.966Z,18.87
2018-09-28T06:57:08.973Z,19.11
2018-09-28T06:58:08.980Z,19.01
2018-09-28T06:59:08.973Z,18.72
2018-09-28T07:00:09.019Z,18.44
2018-09-28T07:01:08.976Z,18.68
2018-09-28T07:02:08.977Z,18.70
2018-09-28T07:03:08.978Z,19.18
2018-09-28T07:04:09.065Z,19.15
2018-09-28T07:05:08.992Z,19.11
2018-09-28T07:06:09.037Z,18.70
2018-09-28T07:07:08.988Z,18.24
2018-09-28T07:08:08.989Z,18.12
2018-09-28T07:09:08.996Z,18.31
2018-09-28T07:10:08.998Z,18.40
2018-09-28T07:11:09.004Z,18.68
2018-09-28T07:12:09.059Z,18.62
2018-09-28T07:13:08.997Z,18.98
2018-09-28T07:14:09.013Z,19.35
2018-09-28T07:15:09.016Z,19.42
2018-09-28T07:16:09.058Z,18.92
2018-09-28T07:17:09.012Z,18.68
2018-09-28T07:18:09.070Z,19.46
2018-09-28T07:19:09.022Z,19.24
2018-09-28T07:20:09.044Z,19.55
2018-09-28T07:21:09.030Z,19.78
2018-09-28T07:22:09.035Z,19.79
2018-09-28T07:23:09.063Z,19.69
2018-09-28T07:24:09.087Z,19.25
2018-09-28T07:25:09.123Z,19.23
2018-09-28T07:26:09.051Z,19.47
2018-09-28T07:27:09.054Z,19.86
2018-09-28T07:28:09.060Z,19.70
2018-09-28T07:29:09.064Z,19.75
2018-09-28T07:30:09.094Z,19.79
2018-09-28T07:31:09.074Z,19.87
2018-09-28T07:32:09.080Z,19.70
2018-09-28T07:33:09.092Z,19.50
2018-09-28T07:34:09.088Z,19.94
2018-09-28T07:35:09.092Z,19.83
2018-09-28T07:36:09.223Z,20.05
2018-09-28T07:37:09.306Z,20.20
2018-09-28T07:38:09.115Z,21.04
2018-09-28T07:39:09.117Z,21.92
2018-09-28T07:40:09.114Z,21.35
2018-09-28T07:41:09.123Z,21.50
2018-09-28T07:42:09.143Z,21.17
2018-09-28T07:43:09.136Z,21.45
2018-09-28T07:44:09.147Z,21.63
2018-09-28T07:45:09.149Z,22.64
2018-09-28T07:46:09.157Z,22.96
2018-09-28T07:47:09.159Z,22.84
2018-09-28T07:48:09.194Z,22.82
2018-09-28T07:49:09.256Z,22.93
2018-09-28T07:50:09.180Z,23.08
2018-09-28T07:51:09.183Z,22.93
2018-09-28T07:52:09.191Z,21.99
2018-09-28T07:53:09.198Z,22.43
2018-09-28T07:54:09.214Z,22.35
2018-09-28T07:55:09.213Z,22.37
2018-09-28T07:56:09.216Z,22.37
2018-09-28T07:57:09.220Z,21.61
2018-09-28T07:58:09.231Z,20.95
2018-09-28T07:59:09.237Z,21.20
2018-09-28T08:00:09.241Z,21.01
2018-09-28T08:01:09.250Z,21.27
2018-09-28T08:02:09.258Z,21.78
2018-09-28T08:03:09.265Z,21.45
2018-09-28T08:04:09.269Z,20.87
2018-09-28T08:05:09.278Z,21.32
2018-09-28T08:06:09.279Z,22.13
2018-09-28T08:07:09.291Z,21.85
2018-09-28T08:08:09.291Z,21.98
2018-09-28T08:09:09.307Z,21.30
2018-09-28T08:10:09.311Z,21.36
2018-09-28T08:11:09.313Z,21.35
2018-09-28T08:12:09.324Z,22.27
2018-09-28T08:13:09.329Z,22.47
2018-09-28T08:14:09.336Z,22.94
2018-09-28T08:15:09.342Z,23.29
2018-09-28T08:16:09.349Z,22.68
2018-09-28T08:17:09.356Z,22.56
2018-09-28T08:18:09.364Z,22.39
2018-09-28T08:19:09.387Z,22.99
2018-09-28T08:20:09.392Z,23.42
2018-09-28T08:21:09.408Z,22.60
2018-09-28T08:22:09.397Z,22.86
2018-09-28T08:23:09.409Z,22.84
2018-09-28T08:24:09.414Z,22.87
2018-09-28T08:25:09.422Z,23.26
2018-09-28T08:26:09.427Z,22.89
2018-09-28T08:27:09.431Z,22.99
2018-09-28T08:28:09.438Z,23.09
2018-09-28T08:29:09.459Z,23.09
2018-09-28T08:30:09.458Z,23.20
2018-09-28T08:31:09.465Z,23.22
2018-09-28T08:32:09.472Z,23.14
2018-09-28T08:33:09.479Z,23.40
2018-09-28T08:34:09.495Z,24.34
2018-09-28T08:35:09.498Z,25.12
2018-09-28T08:36:09.577Z,25.50
2018-09-28T08:37:09.519Z,24.88
2018-09-28T08:38:09.524Z,24.71
2018-09-28T08:39:09.534Z,25.06
2018-09-28T08:40:09.539Z,25.57
2018-09-28T08:41:09.545Z,25.71
2018-09-28T08:42:09.554Z,25.67
2018-09-28T08:43:09.564Z,25.61
2018-09-28T08:44:09.589Z,25.84
2018-09-28T08:45:09.584Z,25.84
2018-09-28T08:46:09.597Z,25.61
2018-09-28T08:47:09.603Z,25.67
2018-09-28T08:48:09.632Z,25.99
2018-09-28T08:49:09.666Z,25.89
2018-09-28T08:50:09.629Z,25.37
2018-09-28T08:51:09.640Z,25.42
2018-09-28T08:52:09.647Z,25.47
2018-09-28T08:53:09.656Z,25.82
2018-09-28T08:54:09.666Z,26.49
2018-09-28T08:55:09.679Z,26.31
2018-09-28T08:56:09.690Z,25.72
2018-09-28T08:57:09.697Z,26.40
2018-09-28T08:58:09.704Z,26.31
2018-09-28T08:59:09.711Z,26.40
2018-09-28T09:00:09.732Z,26.24
2018-09-28T09:01:09.736Z,26.02
2018-09-28T09:02:09.809Z,26.74
2018-09-28T09:03:09.768Z,27.46
2018-09-28T09:04:09.773Z,27.20
2018-09-28T09:05:09.773Z,27.05
2018-09-28T09:06:09.785Z,27.01
2018-09-28T09:07:09.790Z,27.06
2018-09-28T09:08:09.805Z,26.72
2018-09-28T09:09:09.810Z,27.71
2018-09-28T09:10:09.828Z,28.58
2018-09-28T09:11:09.832Z,29.15
2018-09-28T09:12:09.852Z,29.38
2018-09-28T09:13:09.850Z,28.09
2018-09-28T09:14:09.862Z,28.40
2018-09-28T09:15:09.869Z,27.69
2018-09-28T09:16:09.887Z,27.92
2018-09-28T09:17:09.895Z,27.94
2018-09-28T09:18:09.988Z,27.99
2018-09-28T09:19:09.915Z,28.19
2018-09-28T09:20:09.916Z,28.66
2018-09-28T09:21:09.938Z,29.25
2018-09-28T09:22:09.953Z,29.38
2018-09-28T09:23:09.958Z,28.47
2018-09-28T09:24:09.972Z,28.44
2018-09-28T09:25:09.981Z,28.54
2018-09-28T09:26:10.002Z,28.21
2018-09-28T09:27:10.027Z,27.88
2018-09-28T09:28:10.024Z,27.71
2018-09-28T09:29:10.021Z,28.09
2018-09-28T09:30:10.139Z,27.64
2018-09-28T09:31:10.047Z,27.29
2018-09-28T09:32:10.048Z,27.71
2018-09-28T09:33:10.075Z,27.79
2018-09-28T09:34:10.082Z,27.96
2018-09-28T09:35:10.091Z,27.89
2018-09-28T09:36:10.103Z,28.81
2018-09-28T09:37:10.113Z,29.70
2018-09-28T09:38:10.130Z,29.57
2018-09-28T09:39:10.164Z,29.86
2018-09-28T09:40:10.163Z,29.23
2018-09-28T09:41:10.159Z,29.50
2018-09-28T09:42:10.168Z,29.56
2018-09-28T09:43:10.173Z,30.12
2018-09-28T09:44:10.198Z,30.47
2018-09-28T09:45:10.204Z,31.08
2018-09-28T09:46:10.213Z,31.15
2018-09-28T09:47:10.225Z,31.11
2018-09-28T09:48:10.243Z,30.08
2018-09-28T09:49:10.258Z,29.93
2018-09-28T09:50:10.266Z,29.71
2018-09-28T09:51:10.281Z,30.14
2018-09-28T09:52:10.288Z,30.21
2018-09-28T09:53:10.297Z,30.47
2018-09-28T09:54:10.313Z,30.53
2018-09-28T09:55:10.339Z,29.22
2018-09-28T09:56:10.334Z,28.63
2018-09-28T09:57:10.349Z,29.22
2018-09-28T09:58:10.389Z,28.78
2018-09-28T09:59:10.371Z,28.96
2018-09-28T10:00:10.380Z,28.43
2018-09-28T10:01:10.401Z,28.48
2018-09-28T10:02:10.412Z,29.41
2018-09-28T10:03:10.421Z,30.29
2018-09-28T10:04:10.428Z,31.11
2018-09-28T10:05:10.445Z,31.09
2018-09-28T10:06:10.454Z,31.02
2018-09-28T10:07:10.466Z,30.76
2018-09-28T10:08:10.476Z,29.93
2018-09-28T10:09:10.489Z,29.04
2018-09-28T10:10:10.506Z,29.35
2018-09-28T10:11:10.514Z,30.27
2018-09-28T10:12:10.563Z,31.05
2018-09-28T10:13:10.542Z,31.13
2018-09-28T10:14:10.548Z,31.28
2018-09-28T10:15:10.567Z,31.42
2018-09-28T10:16:10.572Z,30.99
2018-09-28T10:17:10.584Z,30.47
2018-09-28T10:18:10.609Z,31.33
2018-09-28T10:19:10.659Z,31.62
2018-09-28T10:20:10.626Z,31.91
2018-09-28T10:21:10.644Z,32.44
2018-09-28T10:22:10.646Z,32.43
2018-09-28T10:23:10.663Z,31.33
2018-09-28T10:24:10.672Z,31.04
2018-09-28T10:25:10.683Z,31.98
2018-09-28T10:26:10.697Z,32.43
2018-09-28T10:27:10.752Z,31.88
2018-09-28T10:28:10.787Z,30.76
2018-09-28T10:29:10.734Z,30.14
2018-09-28T10:30:10.747Z,29.78
2018-09-28T10:31:10.768Z,29.89
2018-09-28T10:32:10.771Z,29.63
2018-09-28T10:33:10.781Z,29.08
2018-09-28T10:34:10.864Z,29.25
2018-09-28T10:35:10.812Z,29.86
2018-09-28T10:36:10.822Z,30.87
2018-09-28T10:37:10.848Z,31.55
2018-09-28T10:38:10.854Z,31.02
2018-09-28T10:39:10.915Z,29.49
2018-09-28T10:40:10.961Z,28.48
2018-09-28T10:41:10.896Z,27.91
2018-09-28T10:42:10.895Z,27.92
2018-09-28T10:43:10.919Z,28.28
2018-09-28T10:44:10.920Z,28.14
2018-09-28T10:45:10.949Z,27.84
2018-09-28T10:46:10.949Z,27.51
2018-09-28T10:47:10.961Z,27.38
2018-09-28T10:48:10.969Z,27.13
2018-09-28T10:49:10.981Z,27.98
2018-09-28T10:50:10.994Z,28.56
2018-09-28T10:51:11.013Z,27.85
2018-09-28T10:52:11.144Z,28.09
2018-09-28T10:53:11.071Z,27.58
2018-09-28T10:54:11.040Z,27.48
2018-09-28T10:55:11.051Z,28.28
2018-09-28T10:56:11.061Z,28.10
2018-09-28T10:57:11.086Z,27.35
2018-09-28T10:58:11.127Z,26.99
2018-09-28T10:59:11.098Z,27.33
2018-09-28T11:00:11.108Z,26.91
2018-09-28T11:01:11.119Z,26.87
2018-09-28T11:02:11.130Z,26.89
2018-09-28T11:03:11.152Z,27.17
2018-09-28T11:04:11.190Z,27.17
2018-09-28T11:05:11.164Z,26.62
2018-09-28T11:06:11.173Z,27.10
2018-09-28T11:07:11.182Z,27.59
2018-09-28T11:08:11.209Z,28.21
2018-09-28T11:09:11.263Z,27.38
2018-09-28T11:10:11.282Z,27.82
2018-09-28T11:11:11.229Z,28.47
2018-09-28T11:12:11.244Z,28.21
2018-09-28T11:13:11.253Z,28.43
2018-09-28T11:14:11.264Z,28.63
2018-09-28T11:15:11.339Z,27.95
2018-09-28T11:16:11.325Z,28.35
2018-09-28T11:17:11.295Z,28.65
2018-09-28T11:18:11.310Z,28.70
2018-09-28T11:19:11.313Z,29.07
2018-09-28T11:20:11.324Z,28.54
2018-09-28T11:21:11.415Z,28.66
2018-09-28T11:22:11.350Z,29.59
2018-09-28T11:23:11.364Z,29.13
2018-09-28T11:24:11.365Z,29.34
2018-09-28T11:25:11.383Z,29.44
2018-09-28T11:26:11.408Z,30.18
2018-09-28T11:27:11.420Z,29.56
2018-09-28T11:28:11.415Z,29.84
2018-09-28T11:29:11.427Z,29.49
2018-09-28T11:30:11.438Z,29.35
2018-09-28T11:31:11.452Z,28.48
2018-09-28T11:32:11.467Z,28.72
2018-09-28T11:33:11.517Z,28.73
2018-09-28T11:34:11.488Z,28.70
2018-09-28T11:35:11.491Z,28.17
2018-09-28T11:36:11.494Z,28.85
2018-09-28T11:37:11.519Z,28.59
2018-09-28T11:38:11.529Z,28.51
2018-09-28T11:39:11.553Z,28.10
2018-09-28T11:40:11.551Z,26.22
2018-09-28T11:41:11.562Z,26.15
2018-09-28T11:42:11.577Z,27.53
2018-09-28T11:43:11.616Z,27.84
2018-09-28T11:44:11.602Z,28.50
2018-09-28T11:45:11.683Z,28.25
2018-09-28T11:46:11.613Z,26.84
2018-09-28T11:47:11.624Z,26.08
2018-09-28T11:48:11.635Z,25.47
2018-09-28T11:49:11.654Z,25.17
2018-09-28T11:50:11.660Z,26.06
2018-09-28T11:51:11.713Z,26.57
2018-09-28T11:52:11.675Z,25.80
2018-09-28T11:53:11.682Z,26.43
2018-09-28T11:54:11.699Z,27.73
2018-09-28T11:55:11.702Z,28.33
2018-09-28T11:56:11.713Z,27.70
2018-09-28T11:57:11.725Z,26.25
2018-09-28T11:58:11.727Z,25.32
2018-09-28T11:59:11.740Z,26.04
2018-09-28T12:00:11.748Z,26.83
2018-09-28T12:01:11.831Z,27.69
2018-09-28T12:02:11.763Z,27.50
2018-09-28T12:03:11.791Z,28.22
2018-09-28T12:04:11.787Z,28.36
2018-09-28T12:05:11.848Z,28.62
2018-09-28T12:06:11.872Z,27.46
2018-09-28T12:07:11.841Z,27.26
2018-09-28T12:08:11.814Z,26.91
2018-09-28T12:09:11.833Z,26.40
2018-09-28T12:10:11.826Z,26.08
2018-09-28T12:11:11.836Z,25.77
2018-09-28T12:12:11.936Z,25.05
2018-09-28T12:13:11.852Z,24.63
2018-09-28T12:14:11.860Z,25.00
2018-09-28T12:15:11.867Z,25.01
2018-09-28T12:16:11.874Z,25.27
2018-09-28T12:17:11.879Z,25.24
2018-09-28T12:18:11.922Z,25.30
2018-09-28T12:19:11.891Z,25.31
2018-09-28T12:20:11.895Z,25.10
2018-09-28T12:21:11.956Z,24.87
2018-09-28T12:22:11.909Z,24.64
2018-09-28T12:23:11.915Z,24.56
2018-09-28T12:24:11.970Z,24.34
2018-09-28T12:25:11.925Z,24.05
2018-09-28T12:26:11.931Z,23.87
2018-09-28T12:27:11.960Z,23.83
2018-09-28T12:28:11.943Z,23.87
2018-09-28T12:29:11.941Z,23.83
2018-09-28T12:30:11.950Z,23.50
2018-09-28T12:31:11.950Z,23.15
2018-09-28T12:32:11.958Z,23.15
2018-09-28T12:33:11.976Z,23.02
2018-09-28T12:34:11.961Z,22.83
2018-09-28T12:35:11.966Z,22.72
2018-09-28T12:36:12.033Z,22.62
2018-09-28T12:37:11.976Z,22.49
2018-09-28T12:38:11.984Z,22.49
2018-09-28T12:39:12.044Z,22.44
2018-09-28T12:40:11.982Z,22.57
2018-09-28T12:41:11.987Z,22.72
2018-09-28T12:42:12.005Z,22.59
2018-09-28T12:43:11.989Z,22.59
2018-09-28T12:44:11.996Z,22.56
2018-09-28T12:45:12.017Z,22.57
2018-09-28T12:46:11.996Z,22.60
2018-09-28T12:47:11.998Z,22.54
2018-09-28T12:48:12.030Z,22.62
2018-09-28T12:49:12.005Z,22.71
2018-09-28T12:50:12.009Z,22.77
2018-09-28T12:51:12.007Z,22.84
2018-09-28T12:52:12.009Z,22.80
2018-09-28T12:53:12.010Z,22.99
2018-09-28T12:54:12.067Z,23.04
2018-09-28T12:55:12.015Z,23.04
2018-09-28T12:56:12.041Z,22.87
2018-09-28T12:57:12.030Z,22.78
2018-09-28T12:58:12.010Z,22.69
2018-09-28T12:59:12.020Z,22.67
2018-09-28T13:00:12.021Z,22.57
2018-09-28T13:01:12.323Z,22.31
2018-09-28T13:02:12.048Z,22.19
2018-09-28T13:03:12.023Z,22.19
2018-09-28T13:04:12.027Z,21.99
2018-09-28T13:05:12.032Z,21.88
2018-09-28T13:06:12.068Z,21.79
2018-09-28T13:07:12.035Z,21.83
2018-09-28T13:08:12.076Z,21.74
2018-09-28T13:09:12.033Z,21.75
2018-09-28T13:10:12.033Z,21.78
2018-09-28T13:11:12.039Z,21.74
2018-09-28T13:12:12.052Z,21.74
2018-09-28T13:13:12.038Z,21.63
2018-09-28T13:14:12.093Z,21.60
2018-09-28T13:15:12.176Z,21.48
2018-09-28T13:16:12.039Z,21.44
2018-09-28T13:17:12.040Z,21.48
2018-09-28T13:18:12.512Z,21.51
2018-09-28T13:19:12.043Z,21.50
2018-09-28T13:20:12.105Z,21.48
2018-09-28T13:21:12.042Z,21.48
2018-09-28T13:22:12.045Z,21.51
2018-09-28T13:23:12.041Z,21.48
2018-09-28T13:24:12.047Z,21.61
2018-09-28T13:25:12.045Z,21.57
2018-09-28T13:26:12.056Z,21.54
2018-09-28T13:27:12.045Z,21.45
2018-09-28T13:28:12.055Z,21.51
2018-09-28T13:29:12.099Z,21.60
2018-09-28T13:30:12.096Z,21.71
2018-09-28T13:31:12.045Z,21.76
2018-09-28T13:32:12.055Z,21.76
2018-09-28T13:33:12.047Z,21.79
2018-09-28T13:34:12.045Z,21.83
2018-09-28T13:35:12.049Z,21.88